LSZS

Details ICAO LSZS (SMV)
Name Samedan
Region Switzerland
Timezone Europe/Zurich (UTC+2.0)
Plans Departing 122
Arriving 196
Stats Elevation 5,600 ft / 1,707 m (AMSL)
Location 46.534200° 9.883970°
Runways 1
Magnetic Variation 2.759° E
Sunrise 2018-10-18 05:42:49 UTC / 2018-10-18 07:42:49 Local
Sunset 2018-10-18 16:30:46 UTC / 2018-10-18 18:30:46 Local
Advertisement - Login to hide

Runways

ID Width Length Bearing (true/mag) Surface Threshold Overrun Markings Lighting
03 131 ft / 40 m 6,045 ft / 1,842 m 29.15° / 26.39° ASPHALT 0 ft / 0 m 0 ft / 0 m APP EDGE THRESHOLD MALSR
21 131 ft / 40 m 6,045 ft / 1,842 m 209.15° / 206.40° ASPHALT 361 ft / 110 m 0 ft / 0 m APP EDGE THRESHOLD MALSR

Map

Weather


0- 5 10 15 20 25 30 35+ Temperature / °C

Clouds and Precipitation
Forecast for 2018-10-18 06:00 UTC. Updated 4 hours ago

Ground ~20,000 ft ~40,000 ft Winds

METAR

LSZS 180720Z 22001KT CAVOK 00/00 Q1022 RMK D

TAF

Not found

Frequencies

Recorded 136.60 MHz ATIS
Ground 135.22 MHz AFIS Ground
Tower 135.32 MHz AFIS
Warning: Do not use this data for real-world aviation or navigation. No guarantee of current accuracy is given.